North Conway, New Hampshire
Current Conditions -  °F | °C
As of 9:54 AM on Thursday 23 Oct 2014 (Local Time) from KIZG Reporting Station
Light Rain Light Rain  
Wind Chill:   Ceiling: 1300
Heat Index:   Visibility: 8mi
Dew Point:   Wind: 13mph
Humidity: 86%   Direction: 10°N
Pressure: 29.84"   Gusts: 21mph
Location:  44.05°N, 71.13°W
Report Text: KIZG 231354Z AUTO 01011G18KT 8SM -RA OVC013 09/07 A2984 RMK AO2 SLP107 P0002 T00940072
Loading
Personal Weather Stations






























Interactive Weather Map New forecast layout! Learn more

10-Day Weather Forecast

Advertisements
Track Severe Weather on mobile